createdAt,value
2022-10-10T00:02:06.988Z,6.17
2022-10-10T00:04:55.967Z,6.67
2022-10-10T00:07:45.397Z,5.77
2022-10-10T00:10:34.495Z,6.07
2022-10-10T00:13:24.810Z,6.90
2022-10-10T00:16:14.150Z,5.53
2022-10-10T00:19:03.029Z,5.80
2022-10-10T00:21:51.848Z,5.87
2022-10-10T00:24:40.701Z,5.07
2022-10-10T00:27:29.547Z,6.20
2022-10-10T00:30:19.837Z,5.80
2022-10-10T00:33:08.823Z,6.77
2022-10-10T00:35:57.669Z,5.87
2022-10-10T00:38:46.507Z,5.93
2022-10-10T00:41:35.432Z,5.83
2022-10-10T00:44:24.371Z,6.47
2022-10-10T00:47:14.827Z,6.50
2022-10-10T00:50:03.779Z,6.13
2022-10-10T00:52:53.673Z,5.90
2022-10-10T00:55:42.658Z,6.83
2022-10-10T00:58:31.834Z,6.80
2022-10-10T01:01:20.811Z,5.33
2022-10-10T01:04:24.547Z,5.43
2022-10-10T01:07:17.245Z,5.20
2022-10-10T01:10:08.286Z,5.30
2022-10-10T01:13:12.200Z,6.00
2022-10-10T01:16:02.951Z,5.83
2022-10-10T01:18:56.359Z,5.60
2022-10-10T01:21:49.703Z,5.17
2022-10-10T01:24:49.342Z,6.10
2022-10-10T01:27:43.209Z,5.53
2022-10-10T01:30:36.328Z,5.47
2022-10-10T01:33:29.821Z,5.97
2022-10-10T01:36:24.287Z,5.27
2022-10-10T01:39:16.906Z,5.57
2022-10-10T01:42:08.555Z,5.73
2022-10-10T01:44:57.507Z,6.00
2022-10-10T01:47:47.753Z,5.70
2022-10-10T01:50:44.864Z,5.40
2022-10-10T01:53:39.857Z,5.20
2022-10-10T01:56:34.790Z,5.10
2022-10-10T01:59:30.465Z,5.30
2022-10-10T02:02:24.165Z,5.30
2022-10-10T02:05:17.798Z,5.30
2022-10-10T02:08:08.959Z,5.53
2022-10-10T02:11:00.914Z,5.23
2022-10-10T02:13:50.982Z,5.53
2022-10-10T02:16:40.749Z,5.40
2022-10-10T02:19:30.199Z,4.90
2022-10-10T02:22:20.910Z,5.83
2022-10-10T02:25:10.522Z,5.20
2022-10-10T02:28:04.293Z,4.77
2022-10-10T02:30:55.749Z,5.50
2022-10-10T02:33:47.003Z,6.20
2022-10-10T02:36:36.228Z,5.93
2022-10-10T02:39:30.080Z,5.10
2022-10-10T02:42:20.939Z,6.30
2022-10-10T02:45:10.090Z,5.83
2022-10-10T02:47:58.990Z,5.73
2022-10-10T02:50:47.841Z,5.70
2022-10-10T02:53:38.682Z,5.60
2022-10-10T02:56:29.048Z,5.40
2022-10-10T02:59:17.889Z,5.93
2022-10-10T03:02:07.866Z,6.07
2022-10-10T03:04:58.097Z,5.80
2022-10-10T03:07:47.236Z,5.93
2022-10-10T03:10:36.136Z,6.30
2022-10-10T03:13:26.366Z,6.20
2022-10-10T03:16:15.150Z,5.30
2022-10-10T03:19:04.148Z,6.10
2022-10-10T03:21:52.963Z,5.80
2022-10-10T03:24:41.798Z,5.73
2022-10-10T03:27:30.613Z,6.20
2022-10-10T03:30:20.849Z,5.90
2022-10-10T03:33:10.158Z,5.60
2022-10-10T03:35:58.968Z,6.10
2022-10-10T03:38:47.864Z,6.47
2022-10-10T03:41:36.889Z,6.33
2022-10-10T03:44:25.851Z,6.03
2022-10-10T03:47:16.039Z,6.20
2022-10-10T03:50:05.031Z,5.73
2022-10-10T03:52:53.930Z,5.70
2022-10-10T03:55:42.959Z,5.60
2022-10-10T03:58:32.055Z,6.30
2022-10-10T04:01:20.928Z,5.90
2022-10-10T04:04:11.113Z,6.43
2022-10-10T04:06:59.931Z,6.00
2022-10-10T04:09:48.765Z,6.13
2022-10-10T04:12:37.650Z,6.60
2022-10-10T04:15:26.703Z,5.90
2022-10-10T04:18:15.634Z,6.23
2022-10-10T04:21:06.134Z,6.37
2022-10-10T04:23:55.074Z,5.87
2022-10-10T04:26:43.894Z,6.50
2022-10-10T04:29:33.005Z,5.40
2022-10-10T04:32:21.854Z,5.50
2022-10-10T04:35:10.967Z,5.80
2022-10-10T04:38:01.186Z,5.47
2022-10-10T04:40:50.740Z,5.67
2022-10-10T04:43:39.658Z,5.77
2022-10-10T04:46:28.491Z,5.63
2022-10-10T04:49:17.297Z,5.47
2022-10-10T04:52:06.239Z,5.53
2022-10-10T04:54:56.417Z,5.33
2022-10-10T04:57:45.474Z,6.30
2022-10-10T05:00:34.324Z,5.20
2022-10-10T05:03:23.384Z,5.43
2022-10-10T05:06:12.219Z,5.67
2022-10-10T05:09:01.065Z,5.80
2022-10-10T05:11:51.402Z,5.83
2022-10-10T05:14:42.558Z,5.70
2022-10-10T05:17:34.762Z,5.87
2022-10-10T05:20:24.320Z,7.27
2022-10-10T05:23:13.125Z,5.20
2022-10-10T05:26:01.998Z,6.27
2022-10-10T05:28:52.321Z,4.97
2022-10-10T05:31:41.177Z,5.70
2022-10-10T05:34:30.080Z,5.50
2022-10-10T05:37:18.910Z,5.70
2022-10-10T05:40:08.643Z,6.20
2022-10-10T05:42:58.130Z,6.33
2022-10-10T05:45:48.410Z,6.60
2022-10-10T05:48:37.238Z,7.00
2022-10-10T05:51:26.430Z,8.43
2022-10-10T05:54:15.273Z,8.50
2022-10-10T05:57:04.099Z,8.60
2022-10-10T05:59:52.992Z,9.40
2022-10-10T06:02:43.259Z,7.60
2022-10-10T06:05:32.199Z,8.10
2022-10-10T06:08:21.068Z,8.77
2022-10-10T06:11:11.000Z,8.07
2022-10-10T06:13:59.846Z,8.07
2022-10-10T06:16:48.662Z,8.43
2022-10-10T06:19:39.093Z,8.10
2022-10-10T06:22:28.395Z,8.40
2022-10-10T06:25:38.202Z,8.40
2022-10-10T06:28:26.426Z,8.13
2022-10-10T06:31:15.889Z,9.40
2022-10-10T06:34:04.790Z,8.57
2022-10-10T06:36:55.111Z,8.20
2022-10-10T06:39:44.062Z,8.87
2022-10-10T06:42:32.923Z,8.23
2022-10-10T06:45:21.880Z,7.73
2022-10-10T06:48:11.705Z,7.43
2022-10-10T06:51:00.976Z,7.23
2022-10-10T06:53:51.477Z,7.30
2022-10-10T06:56:40.283Z,6.43
2022-10-10T06:59:29.138Z,6.27
2022-10-10T07:02:17.964Z,6.80
2022-10-10T07:05:07.278Z,5.20
2022-10-10T07:07:56.106Z,4.93
2022-10-10T07:10:46.693Z,4.00
2022-10-10T07:13:35.549Z,3.43
2022-10-10T07:16:24.457Z,3.70
2022-10-10T07:19:13.289Z,3.50
2022-10-10T07:22:02.190Z,4.00
2022-10-10T07:24:51.309Z,3.10
2022-10-10T07:27:41.502Z,3.37
2022-10-10T07:30:30.406Z,3.77
2022-10-10T07:33:19.230Z,3.67
2022-10-10T07:36:08.429Z,4.47
2022-10-10T07:38:57.304Z,5.17
2022-10-10T07:41:46.112Z,4.10
2022-10-10T07:44:36.413Z,4.30
2022-10-10T07:47:25.268Z,4.57
2022-10-10T07:50:14.129Z,4.73
2022-10-10T07:53:02.950Z,4.57
2022-10-10T07:55:51.837Z,4.70
2022-10-10T07:58:40.904Z,4.10
2022-10-10T08:01:31.222Z,4.53
2022-10-10T08:04:20.389Z,4.30
2022-10-10T08:07:09.202Z,3.80
2022-10-10T08:09:58.082Z,4.70
2022-10-10T08:12:46.885Z,4.20
2022-10-10T08:15:35.706Z,4.47
2022-10-10T08:18:25.994Z,4.00
2022-10-10T08:21:15.620Z,3.97
2022-10-10T08:24:04.467Z,3.80
2022-10-10T08:26:53.286Z,3.43
2022-10-10T08:29:42.162Z,3.10
2022-10-10T08:32:30.973Z,2.73
2022-10-10T08:35:21.154Z,3.07
2022-10-10T08:38:09.997Z,2.77
2022-10-10T08:40:59.308Z,3.13
2022-10-10T08:43:52.163Z,2.70
2022-10-10T08:46:42.474Z,3.10
2022-10-10T08:49:34.168Z,2.10
2022-10-10T08:52:29.814Z,3.07
2022-10-10T08:55:20.967Z,2.28
2022-10-10T08:58:13.892Z,2.72
2022-10-10T09:01:07.127Z,2.13
2022-10-10T09:03:57.476Z,2.13
2022-10-10T09:06:53.802Z,2.30
2022-10-10T09:09:46.131Z,2.90
2022-10-10T09:12:40.896Z,3.20
2022-10-10T09:15:32.723Z,3.25
2022-10-10T09:18:25.793Z,3.58
2022-10-10T09:21:17.281Z,3.20
2022-10-10T09:24:08.161Z,3.33
2022-10-10T09:27:02.060Z,2.60
2022-10-10T09:29:53.978Z,3.05
2022-10-10T09:32:44.014Z,2.80
2022-10-10T09:35:35.727Z,2.70
2022-10-10T09:38:31.888Z,2.42
2022-10-10T09:41:22.805Z,3.10
2022-10-10T09:44:13.701Z,2.47
2022-10-10T09:47:02.658Z,2.45
2022-10-10T09:49:51.655Z,2.95
2022-10-10T09:52:40.635Z,3.15
2022-10-10T09:55:31.654Z,2.22
2022-10-10T09:58:25.330Z,2.47
2022-10-10T10:01:17.028Z,2.78
2022-10-10T10:04:27.031Z,2.70
2022-10-10T10:07:21.743Z,2.42
2022-10-10T10:10:18.777Z,3.42
2022-10-10T10:13:14.034Z,2.97
2022-10-10T10:16:04.742Z,2.80
2022-10-10T10:18:55.546Z,2.80
2022-10-10T10:21:49.904Z,2.80
2022-10-10T10:24:39.119Z,3.00
2022-10-10T10:27:28.999Z,2.17
2022-10-10T10:30:25.822Z,2.75
2022-10-10T10:33:18.465Z,2.70
2022-10-10T10:36:12.666Z,2.42
2022-10-10T10:39:05.191Z,2.17
2022-10-10T10:41:57.354Z,2.42
2022-10-10T10:44:50.110Z,2.17
2022-10-10T10:47:43.578Z,2.17
2022-10-10T10:50:38.369Z,1.88
2022-10-10T10:53:37.080Z,2.20
2022-10-10T11:00:16.522Z,2.00
2022-10-10T11:03:05.958Z,2.30
2022-10-10T11:05:53.087Z,2.10
2022-10-10T11:08:50.775Z,2.60
2022-10-10T11:11:46.785Z,2.10
2022-10-10T11:14:47.457Z,1.70
2022-10-10T11:17:38.574Z,2.40
2022-10-10T11:20:29.544Z,2.35
2022-10-10T11:23:20.634Z,2.00
2022-10-10T11:26:14.794Z,1.35
2022-10-10T11:29:05.780Z,2.38
2022-10-10T11:31:57.791Z,2.53
2022-10-10T11:34:49.129Z,2.30
2022-10-10T11:37:40.537Z,2.08
2022-10-10T11:40:34.283Z,1.88
2022-10-10T11:43:28.690Z,2.58
2022-10-10T11:46:22.318Z,2.30
2022-10-10T11:49:18.621Z,1.95
2022-10-10T11:52:32.918Z,2.10
2022-10-10T11:55:26.340Z,2.35
2022-10-10T11:58:33.172Z,2.20
2022-10-10T12:01:25.538Z,2.00
2022-10-10T12:04:14.406Z,1.45
2022-10-10T12:07:05.209Z,2.08
2022-10-10T12:09:56.183Z,2.28
2022-10-10T12:12:46.809Z,2.92
2022-10-10T12:15:42.614Z,1.90
2022-10-10T12:18:41.152Z,2.13
2022-10-10T12:21:30.869Z,1.70
2022-10-10T12:24:19.745Z,2.53
2022-10-10T12:27:26.791Z,2.33
2022-10-10T12:30:34.117Z,2.25
2022-10-10T12:33:24.315Z,2.10
2022-10-10T12:36:31.721Z,2.92
2022-10-10T12:39:35.346Z,2.38
2022-10-10T12:42:29.007Z,2.70
2022-10-10T12:45:32.706Z,3.15
2022-10-10T12:48:22.446Z,2.67
2022-10-10T12:51:20.885Z,2.25
2022-10-10T12:54:10.067Z,2.70
2022-10-10T12:57:07.686Z,2.03
2022-10-10T13:00:01.167Z,2.88
2022-10-10T13:02:53.516Z,2.85
2022-10-10T13:05:42.613Z,2.10
2022-10-10T13:08:31.914Z,2.20
2022-10-10T13:11:20.801Z,2.43
2022-10-10T13:14:12.757Z,2.20
2022-10-10T13:17:01.553Z,3.47
2022-10-10T13:19:50.521Z,2.00
2022-10-10T13:22:41.960Z,2.40
2022-10-10T13:25:33.269Z,2.07
2022-10-10T13:28:22.572Z,3.47
2022-10-10T13:31:14.803Z,3.20
2022-10-10T13:34:04.987Z,2.37
2022-10-10T13:36:55.304Z,2.20
2022-10-10T13:39:44.443Z,2.33
2022-10-10T13:42:35.358Z,2.40
2022-10-10T13:45:31.903Z,2.60
2022-10-10T13:48:39.261Z,3.60
2022-10-10T13:51:42.623Z,4.80
2022-10-10T13:54:42.827Z,3.20
2022-10-10T13:57:31.682Z,2.85
2022-10-10T14:00:21.956Z,3.30
2022-10-10T14:03:16.207Z,2.28
2022-10-10T14:06:06.773Z,2.95
2022-10-10T14:08:56.366Z,2.55
2022-10-10T14:11:45.241Z,4.20
2022-10-10T14:14:35.793Z,2.83
2022-10-10T14:17:24.990Z,2.60
2022-10-10T14:20:14.138Z,2.92
2022-10-10T14:23:04.900Z,2.80
2022-10-10T14:25:53.789Z,2.60
2022-10-10T14:28:42.652Z,3.00
2022-10-10T14:31:31.662Z,3.60
2022-10-10T14:34:20.531Z,3.20
2022-10-10T14:37:12.238Z,3.13
2022-10-10T14:40:03.031Z,2.87
2022-10-10T14:42:51.921Z,3.03
2022-10-10T14:45:41.288Z,3.40
2022-10-10T14:48:30.255Z,2.47
2022-10-10T14:51:33.683Z,2.80
2022-10-10T14:54:24.336Z,3.90
2022-10-10T14:57:15.442Z,3.08
2022-10-10T15:00:04.398Z,9.43
2022-10-10T15:02:53.377Z,5.72
2022-10-10T15:05:42.638Z,6.18
2022-10-10T15:08:31.542Z,5.47
2022-10-10T15:11:20.376Z,2.50
2022-10-10T15:14:10.558Z,2.53
2022-10-10T15:16:59.408Z,2.50
2022-10-10T15:19:48.334Z,1.90
2022-10-10T15:22:37.585Z,2.47
2022-10-10T15:25:30.907Z,2.40
2022-10-10T15:28:22.168Z,2.50
2022-10-10T15:31:12.479Z,1.70
2022-10-10T15:34:01.401Z,2.57
2022-10-10T15:36:50.523Z,2.70
2022-10-10T15:39:41.058Z,3.17
2022-10-10T15:42:30.440Z,2.20
2022-10-10T15:45:37.332Z,2.00
2022-10-10T15:48:29.858Z,2.23
2022-10-10T15:51:18.879Z,3.03
2022-10-10T15:54:07.796Z,2.40
2022-10-10T15:56:57.699Z,2.70
2022-10-10T15:59:46.833Z,2.50
2022-10-10T16:02:35.653Z,2.87
2022-10-10T16:05:28.349Z,3.20
2022-10-10T16:08:18.920Z,3.40
2022-10-10T16:11:08.665Z,2.93
2022-10-10T16:13:58.087Z,3.17
2022-10-10T16:16:46.972Z,2.93
2022-10-10T16:19:35.978Z,3.53
2022-10-10T16:22:26.256Z,4.00
2022-10-10T16:25:23.170Z,4.20
2022-10-10T16:28:12.576Z,5.53
2022-10-10T16:31:03.488Z,4.30
2022-10-10T16:33:52.581Z,4.30
2022-10-10T16:36:41.461Z,4.87
2022-10-10T16:39:31.693Z,5.43
2022-10-10T16:42:20.522Z,5.57
2022-10-10T16:45:10.402Z,6.77
2022-10-10T16:47:59.258Z,7.27
2022-10-10T16:50:48.134Z,8.47
2022-10-10T16:53:37.248Z,5.70
2022-10-10T16:56:27.547Z,5.97
2022-10-10T16:59:16.779Z,6.33
2022-10-10T17:02:05.658Z,6.27
2022-10-10T17:04:55.311Z,6.03
2022-10-10T17:07:44.669Z,6.03
2022-10-10T17:10:34.052Z,6.80
2022-10-10T17:13:24.272Z,7.30
2022-10-10T17:16:53.559Z,6.77
2022-10-10T17:19:23.498Z,5.83
2022-10-10T17:22:12.412Z,8.03
2022-10-10T17:25:01.292Z,6.40
2022-10-10T17:27:50.450Z,7.07
2022-10-10T17:30:44.705Z,6.33
2022-10-10T17:33:34.993Z,7.07
2022-10-10T17:36:25.182Z,5.90
2022-10-10T17:39:14.119Z,5.47
2022-10-10T17:42:04.524Z,3.57
2022-10-10T17:44:56.779Z,3.30
2022-10-10T17:47:47.021Z,2.77
2022-10-10T17:50:35.966Z,2.67
2022-10-10T17:53:25.093Z,2.40
2022-10-10T17:56:15.601Z,2.50
2022-10-10T17:59:06.645Z,2.30
2022-10-10T18:01:55.602Z,2.30
2022-10-10T18:04:45.778Z,2.07
2022-10-10T18:07:34.719Z,2.03
2022-10-10T18:10:23.576Z,2.53
2022-10-10T18:13:12.480Z,2.33
2022-10-10T18:16:08.500Z,2.20
2022-10-10T18:18:57.338Z,1.77
2022-10-10T18:21:47.605Z,4.00
2022-10-10T18:24:36.445Z,2.60
2022-10-10T18:27:29.701Z,2.70
2022-10-10T18:30:18.653Z,2.80
2022-10-10T18:33:07.519Z,4.00
2022-10-10T18:35:56.374Z,2.50
2022-10-10T18:38:46.542Z,2.30
2022-10-10T18:41:35.764Z,3.20
2022-10-10T18:44:24.655Z,2.70
2022-10-10T18:47:13.585Z,3.03
2022-10-10T18:50:02.542Z,5.03
2022-10-10T18:52:53.387Z,3.77
2022-10-10T18:55:43.693Z,2.90
2022-10-10T18:58:32.632Z,2.53
2022-10-10T19:01:24.804Z,2.30
2022-10-10T19:04:14.967Z,2.77
2022-10-10T19:07:03.818Z,2.20
2022-10-10T19:09:52.639Z,2.70
2022-10-10T19:12:47.096Z,2.23
2022-10-10T19:15:36.287Z,2.80
2022-10-10T19:18:25.121Z,2.40
2022-10-10T19:21:15.038Z,3.40
2022-10-10T19:24:04.410Z,2.93
2022-10-10T19:26:55.674Z,3.40
2022-10-10T19:29:45.895Z,2.47
2022-10-10T19:32:34.744Z,2.37
2022-10-10T19:35:23.588Z,2.80
2022-10-10T19:38:12.628Z,3.20
2022-10-10T19:41:01.895Z,2.70
2022-10-10T19:43:52.951Z,3.23
2022-10-10T19:46:43.152Z,4.87
2022-10-10T19:49:32.879Z,4.03
2022-10-10T19:52:22.238Z,3.60
2022-10-10T19:55:11.349Z,2.63
2022-10-10T19:58:00.212Z,2.83
2022-10-10T20:00:49.077Z,3.50
2022-10-10T20:03:39.450Z,3.10
2022-10-10T20:06:29.057Z,3.00
2022-10-10T20:09:17.882Z,2.90
2022-10-10T20:12:07.024Z,2.60
2022-10-10T20:14:55.843Z,2.50
2022-10-10T20:17:44.729Z,2.57
2022-10-10T20:20:34.924Z,3.87
2022-10-10T20:23:27.930Z,3.13
2022-10-10T20:26:17.978Z,3.00
2022-10-10T20:29:07.342Z,3.27
2022-10-10T20:31:56.191Z,3.70
2022-10-10T20:34:44.989Z,3.30
2022-10-10T20:37:36.692Z,3.77
2022-10-10T20:40:27.489Z,2.97
2022-10-10T20:43:16.446Z,3.50
2022-10-10T20:46:06.585Z,3.60
2022-10-10T20:48:55.777Z,5.03
2022-10-10T20:51:48.445Z,3.93
2022-10-10T20:54:38.621Z,4.03
2022-10-10T20:57:27.537Z,3.77
2022-10-10T21:00:16.974Z,4.53
2022-10-10T21:03:05.820Z,3.87
2022-10-10T21:06:02.797Z,4.17
2022-10-10T21:08:51.987Z,5.53
2022-10-10T21:11:42.311Z,4.70
2022-10-10T21:14:31.569Z,5.47
2022-10-10T21:17:20.506Z,5.77
2022-10-10T21:20:09.967Z,8.37
2022-10-10T21:22:58.888Z,6.33
2022-10-10T21:25:47.832Z,6.67
2022-10-10T21:28:38.636Z,6.23
2022-10-10T21:31:28.844Z,6.47
2022-10-10T21:34:18.928Z,6.47
2022-10-10T21:37:09.192Z,6.20
2022-10-10T21:39:58.035Z,7.73
2022-10-10T21:42:46.945Z,8.70
2022-10-10T21:45:37.593Z,6.47
2022-10-10T21:48:26.470Z,8.67
2022-10-10T21:51:16.016Z,7.73
2022-10-10T21:54:04.942Z,7.90
2022-10-10T21:56:53.783Z,7.40
2022-10-10T21:59:42.583Z,7.50
2022-10-10T22:02:32.792Z,7.23
2022-10-10T22:05:21.623Z,6.63
2022-10-10T22:08:10.901Z,6.70
2022-10-10T22:11:02.046Z,8.00
2022-10-10T22:13:50.983Z,8.20
2022-10-10T22:16:39.858Z,8.33
2022-10-10T22:19:30.084Z,8.53
2022-10-10T22:22:18.980Z,7.80
2022-10-10T22:25:09.091Z,7.00
2022-10-10T22:28:00.425Z,6.97
2022-10-10T22:30:51.416Z,7.60
2022-10-10T22:33:40.462Z,9.73
2022-10-10T22:36:30.645Z,8.50
2022-10-10T22:39:19.453Z,9.03
2022-10-10T22:42:08.294Z,7.90
2022-10-10T22:44:57.119Z,8.47
2022-10-10T22:47:45.933Z,7.70
2022-10-10T22:50:34.749Z,7.00
2022-10-10T22:53:25.251Z,6.00
2022-10-10T22:56:15.753Z,5.80
2022-10-10T22:59:04.552Z,6.87
2022-10-10T23:01:54.483Z,7.73
2022-10-10T23:04:43.279Z,7.10
2022-10-10T23:07:32.140Z,7.07
2022-10-10T23:10:22.273Z,7.43
2022-10-10T23:13:11.213Z,8.20
2022-10-10T23:16:00.031Z,8.10
2022-10-10T23:18:48.966Z,7.00
2022-10-10T23:21:37.823Z,7.13
2022-10-10T23:24:26.910Z,6.83
2022-10-10T23:27:17.101Z,6.20
2022-10-10T23:30:06.391Z,5.30
2022-10-10T23:32:55.199Z,5.80
2022-10-10T23:35:44.013Z,4.80
2022-10-10T23:38:33.036Z,4.80
2022-10-10T23:41:21.981Z,5.13
2022-10-10T23:44:12.148Z,4.73
2022-10-10T23:47:00.971Z,4.60
2022-10-10T23:49:49.799Z,4.17
2022-10-10T23:52:38.641Z,6.93
2022-10-10T23:55:27.674Z,7.60
2022-10-10T23:58:16.562Z,5.40
